Detall de PIREP

Printer-friendly versionPDF version

[2014/11/09 11:18:00]
Flight IATA:CT2101
Pilot Number:044
Company ICAO:CAT
Aircraft Type:B463/A
PAX:94
Aircraft Registration:PAX
Departing Airport: LEAS
Destination Airport: LEVC
Alternate Airport:LEAL
Online: VATSIM
Route:XONDA/N350F220 R107 ZMR/N350F300 UL155 NVS UM871 ABOSI
Flight Level:F300
No Slew and time accel
No pause
Crash detect
Detect pilot in Cockpit between each 30 and 45 minutes
11:18 Zero fuel Weight: 75842 Lbs, Fuel Weight: 12702 Lbs
11:18 VATSIM:LEAS 091100Z 27013KT 9999 FEW035TCU SCT054 11/07 Q1012 TEMPO 4000 TSRA BKN025CB
11:18 VATSIM:LEVC 091100Z 28010KT 240V320 9999 FEW030 18/07 Q1008 NOSIG
11:21 Parking Brakes off
11:28 Take-off
11:28 Take off Weight: 88080 Lbs
11:28 Wind: 275º @ 013 Knots Heading: 285º
11:28 POS N43º 33´ 53´´ W006º 02´ 23´´
11:28 Flaps:1 at 152 Knots
11:28 Gear Up: 152 Knots
11:28 Flaps:0 at 143 Knots
11:43 Wind:279º@031 Knots Heading: 168º Ground Speed: 374 Knots Altitude 21938 ft
11:58 Wind:302º@034 Knots Heading: 137º Ground Speed: 395 Knots Altitude 24301 ft
12:01 TOC
12:01 Fuel Weight: 8553 Lb
12:13 Wind:289º@029 Knots Heading: 100º Ground Speed: 373 Knots Altitude 29914 ft
12:24 TOD
12:24 Fuel Weight: 6794 Lb
12:28 Wind:292º@029 Knots Heading: 103º Ground Speed: 395 Knots Altitude 22637 ft
12:43 Wind:337º@006 Knots Heading: 173º Ground Speed: 224 Knots Altitude 4783 ft
12:45 Flaps:1 at 163 Knots
12:47 Gear Down: 162 Knots
12:47 Flaps:2 at 150 Knots
12:48 Flaps:3 at 133 Knots
12:48 Flaps:4 at 132 Knots
12:49 TouchDown:Rate -359 ft/min Speed: 118 Knots
12:49 VATSIM:LEVC 091230Z 34003KT 280V030 9999 FEW025 SCT050 18/06 Q1007 NOSIG
12:49 Land
12:49 Wind:331º@004 Knots
12:49 Heading: 294º
12:49 Flight Duration: 01:21
12:49 Landing Weight: 81701 Lbs
12:49 POS N39º 29´ 29´´W000º 29´ 13´´
12:57 Parking brakes on
12:57 Block to Block Duration: 01:36
12:57 Final Fuel: 5553 Lbls
12:57 Spent Fuel: 7149 Lbls
12:57 Flight Length: 462 NM
12:57 TOD Land Length: 117 NM

Exportar CSV

Powered by Drupal - Modified by Danger4k